createdAt,value
2023-03-11T00:00:46.756Z,99.90
2023-03-11T00:03:16.911Z,99.90
2023-03-11T00:05:47.697Z,99.90
2023-03-11T00:08:17.612Z,99.90
2023-03-11T00:10:47.918Z,99.90
2023-03-11T00:13:17.765Z,99.90
2023-03-11T00:15:48.555Z,99.90
2023-03-11T00:18:17.771Z,99.90
2023-03-11T00:20:48.537Z,99.90
2023-03-11T00:23:17.221Z,99.90
2023-03-11T00:25:46.879Z,99.90
2023-03-11T00:28:16.863Z,99.90
2023-03-11T00:30:46.675Z,99.90
2023-03-11T00:33:16.305Z,99.90
2023-03-11T00:35:46.976Z,99.90
2023-03-11T00:38:17.259Z,99.90
2023-03-11T00:40:46.847Z,99.90
2023-03-11T00:43:15.838Z,99.90
2023-03-11T00:45:44.203Z,99.90
2023-03-11T00:48:14.505Z,99.90
2023-03-11T00:50:42.892Z,99.90
2023-03-11T00:53:13.353Z,99.90
2023-03-11T00:55:41.965Z,99.90
2023-03-11T00:58:11.975Z,99.90
2023-03-11T01:00:40.474Z,99.90
2023-03-11T01:03:08.798Z,99.90
2023-03-11T01:05:37.697Z,99.90
2023-03-11T01:08:06.610Z,99.90
2023-03-11T01:10:37.044Z,99.90
2023-03-11T01:13:05.579Z,99.90
2023-03-11T01:15:35.786Z,99.90
2023-03-11T01:18:05.691Z,99.90
2023-03-11T01:20:34.353Z,99.90
2023-03-11T01:23:02.737Z,99.90
2023-03-11T01:25:31.125Z,99.90
2023-03-11T01:28:01.142Z,99.90
2023-03-11T01:30:30.582Z,99.90
2023-03-11T01:32:59.700Z,99.90
2023-03-11T01:35:30.499Z,99.90
2023-03-11T01:37:59.349Z,99.90
2023-03-11T01:40:32.084Z,99.90
2023-03-11T01:43:02.724Z,99.90
2023-03-11T01:46:02.353Z,99.90
2023-03-11T01:48:30.709Z,99.90
2023-03-11T01:50:59.941Z,99.90
2023-03-11T01:53:28.649Z,99.90
2023-03-11T01:55:57.109Z,99.90
2023-03-11T01:58:30.040Z,99.90
2023-03-11T02:00:59.042Z,99.90
2023-03-11T02:03:31.252Z,99.90
2023-03-11T02:06:02.735Z,99.90
2023-03-11T02:08:34.529Z,99.90
2023-03-11T02:11:05.922Z,99.90
2023-03-11T02:13:36.643Z,99.90
2023-03-11T02:16:05.282Z,99.90
2023-03-11T02:18:33.828Z,99.90
2023-03-11T02:21:12.099Z,99.90
2023-03-11T02:23:49.142Z,99.90
2023-03-11T02:26:21.328Z,99.90
2023-03-11T02:28:52.772Z,99.90
2023-03-11T02:31:21.380Z,99.90
2023-03-11T02:33:52.389Z,99.90
2023-03-11T02:36:35.975Z,99.90
2023-03-11T02:39:05.633Z,99.90
2023-03-11T02:41:35.859Z,99.90
2023-03-11T02:44:08.376Z,99.90
2023-03-11T02:46:37.906Z,99.90
2023-03-11T02:49:08.176Z,99.90
2023-03-11T02:51:36.432Z,99.90
2023-03-11T02:54:06.432Z,99.90
2023-03-11T02:56:34.664Z,99.90
2023-03-11T02:59:03.095Z,99.90
2023-03-11T03:01:33.223Z,99.90
2023-03-11T03:04:01.444Z,99.90
2023-03-11T03:06:29.908Z,99.90
2023-03-11T03:08:58.665Z,99.90
2023-03-11T03:11:26.999Z,99.90
2023-03-11T03:13:55.385Z,99.90
2023-03-11T03:16:23.800Z,99.90
2023-03-11T03:18:53.443Z,99.90
2023-03-11T03:21:21.836Z,99.90
2023-03-11T03:23:50.095Z,99.90
2023-03-11T03:26:18.249Z,99.90
2023-03-11T03:28:46.631Z,99.90
2023-03-11T03:31:15.174Z,99.90
2023-03-11T03:33:43.299Z,99.90
2023-03-11T03:36:15.857Z,99.90
2023-03-11T03:38:44.206Z,99.90
2023-03-11T03:41:15.967Z,99.90
2023-03-11T03:43:44.518Z,99.90
2023-03-11T03:46:12.835Z,99.90
2023-03-11T03:48:40.998Z,99.90
2023-03-11T03:51:11.367Z,99.90
2023-03-11T03:53:41.174Z,99.90
2023-03-11T03:56:11.592Z,99.90
2023-03-11T03:58:40.082Z,99.90
2023-03-11T04:01:08.641Z,99.90
2023-03-11T04:03:38.955Z,99.90
2023-03-11T04:06:08.731Z,99.90
2023-03-11T04:08:37.242Z,99.90
2023-03-11T04:11:06.942Z,99.90
2023-03-11T04:13:35.283Z,99.90
2023-03-11T04:16:05.527Z,99.90
2023-03-11T04:18:33.772Z,99.90
2023-03-11T04:21:05.802Z,99.90
2023-03-11T04:23:34.643Z,99.90
2023-03-11T04:26:03.199Z,99.90
2023-03-11T04:28:33.345Z,99.90
2023-03-11T04:31:01.979Z,99.90
2023-03-11T04:33:30.303Z,99.90
2023-03-11T04:35:59.187Z,99.90
2023-03-11T04:38:27.485Z,99.90
2023-03-11T04:40:55.628Z,99.90
2023-03-11T04:43:24.048Z,99.90
2023-03-11T04:45:53.894Z,99.90
2023-03-11T04:48:22.136Z,99.90
2023-03-11T04:50:50.484Z,99.90
2023-03-11T04:53:18.950Z,99.90
2023-03-11T04:55:47.884Z,99.90
2023-03-11T04:58:16.539Z,99.90
2023-03-11T05:00:44.939Z,99.90
2023-03-11T05:03:14.586Z,99.90
2023-03-11T05:05:42.960Z,99.90
2023-03-11T05:08:11.680Z,99.90
2023-03-11T05:10:42.024Z,99.90
2023-03-11T05:13:10.777Z,99.90
2023-03-11T05:15:39.477Z,99.90
2023-03-11T05:18:07.955Z,99.90
2023-03-11T05:20:38.823Z,99.90
2023-03-11T05:23:07.344Z,99.90
2023-03-11T05:25:36.254Z,99.90
2023-03-11T05:28:04.847Z,99.90
2023-03-11T05:30:33.335Z,99.90
2023-03-11T05:33:01.563Z,99.90
2023-03-11T05:35:30.298Z,99.90
2023-03-11T05:38:00.043Z,99.90
2023-03-11T05:40:28.552Z,99.90
2023-03-11T05:42:56.924Z,99.90
2023-03-11T05:45:25.114Z,99.90
2023-03-11T05:47:53.752Z,99.90
2023-03-11T05:50:22.345Z,99.90
2023-03-11T05:52:50.533Z,99.90
2023-03-11T05:55:20.397Z,99.90
2023-03-11T05:57:51.907Z,99.90
2023-03-11T06:00:20.950Z,99.90
2023-03-11T06:02:49.128Z,99.90
2023-03-11T06:05:17.574Z,99.90
2023-03-11T06:07:46.008Z,99.90
2023-03-11T06:10:14.603Z,99.90
2023-03-11T06:12:44.403Z,99.90
2023-03-11T06:15:13.014Z,99.90
2023-03-11T06:17:41.291Z,99.90
2023-03-11T06:20:11.283Z,99.90
2023-03-11T06:22:40.421Z,99.90
2023-03-11T06:25:09.408Z,99.90
2023-03-11T06:27:37.886Z,99.90
2023-03-11T06:30:08.800Z,99.90
2023-03-11T06:32:37.389Z,99.90
2023-03-11T06:35:06.359Z,99.90
2023-03-11T06:37:37.483Z,99.90
2023-03-11T06:40:07.582Z,99.90
2023-03-11T06:42:36.061Z,99.90
2023-03-11T06:45:04.482Z,99.90
2023-03-11T06:47:34.256Z,99.90
2023-03-11T06:50:06.607Z,99.90
2023-03-11T06:52:34.972Z,99.90
2023-03-11T06:55:04.146Z,99.90
2023-03-11T06:57:32.309Z,99.90
2023-03-11T07:00:00.487Z,99.90
2023-03-11T07:02:28.963Z,99.90
2023-03-11T07:04:58.513Z,99.90
2023-03-11T07:07:26.677Z,99.90
2023-03-11T07:09:56.728Z,99.90
2023-03-11T07:12:25.465Z,99.90
2023-03-11T07:14:56.449Z,99.90
2023-03-11T07:17:25.000Z,99.90
2023-03-11T07:19:53.704Z,99.90
2023-03-11T07:22:23.707Z,99.90
2023-03-11T07:24:52.265Z,99.90
2023-03-11T07:27:21.131Z,99.90
2023-03-11T07:29:49.714Z,99.90
2023-03-11T07:32:18.156Z,99.90
2023-03-11T07:34:46.479Z,99.90
2023-03-11T07:37:15.376Z,99.90
2023-03-11T07:39:45.313Z,99.90
2023-03-11T07:42:13.477Z,99.90
2023-03-11T07:44:42.011Z,99.90
2023-03-11T07:47:10.463Z,99.90
2023-03-11T07:49:38.593Z,99.90
2023-03-11T07:52:07.925Z,99.90
2023-03-11T07:54:36.186Z,99.90
2023-03-11T07:57:07.372Z,99.90
2023-03-11T07:59:35.653Z,99.90
2023-03-11T08:02:04.900Z,99.90
2023-03-11T08:04:33.064Z,99.90
2023-03-11T08:07:01.450Z,99.90
2023-03-11T08:09:30.079Z,99.90
2023-03-11T08:11:58.633Z,99.90
2023-03-11T08:14:28.229Z,99.90
2023-03-11T08:16:56.545Z,99.90
2023-03-11T08:19:25.028Z,99.90
2023-03-11T08:21:53.174Z,99.90
2023-03-11T08:24:21.686Z,99.90
2023-03-11T08:26:50.307Z,99.90
2023-03-11T08:29:18.509Z,99.90
2023-03-11T08:31:48.275Z,99.90
2023-03-11T08:34:17.245Z,99.90
2023-03-11T08:36:45.567Z,99.90
2023-03-11T08:39:16.770Z,99.90
2023-03-11T08:41:45.033Z,99.90
2023-03-11T08:44:13.320Z,99.90
2023-03-11T08:46:42.049Z,99.90
2023-03-11T08:49:12.497Z,99.90
2023-03-11T08:51:40.999Z,99.90
2023-03-11T08:54:09.306Z,99.90
2023-03-11T08:56:37.550Z,99.90
2023-03-11T08:59:05.742Z,99.90
2023-03-11T09:01:33.995Z,99.90
2023-03-11T09:04:02.195Z,99.90
2023-03-11T09:06:31.797Z,99.90
2023-03-11T09:09:00.115Z,99.90
2023-03-11T09:11:28.410Z,99.90
2023-03-11T09:13:56.627Z,99.90
2023-03-11T09:16:25.987Z,99.90
2023-03-11T09:18:54.555Z,99.90
2023-03-11T09:21:22.849Z,99.90
2023-03-11T09:23:52.613Z,99.90
2023-03-11T09:26:21.765Z,99.90
2023-03-11T09:28:49.996Z,99.90
2023-03-11T09:31:19.294Z,99.90
2023-03-11T09:33:47.968Z,99.90
2023-03-11T09:36:18.126Z,99.90
2023-03-11T09:38:46.572Z,99.90
2023-03-11T09:41:27.036Z,99.90
2023-03-11T09:44:08.344Z,99.90
2023-03-11T09:47:11.659Z,99.90
2023-03-11T09:49:52.210Z,99.90
2023-03-11T09:52:28.855Z,99.90
2023-03-11T09:54:57.558Z,99.90
2023-03-11T09:57:31.467Z,99.90
2023-03-11T10:00:01.094Z,99.90
2023-03-11T10:02:29.602Z,99.90
2023-03-11T10:05:00.382Z,99.90
2023-03-11T10:07:34.580Z,99.90
2023-03-11T10:10:02.820Z,99.90
2023-03-11T10:12:46.157Z,98.60
2023-03-11T10:15:22.190Z,98.00
2023-03-11T10:18:29.008Z,99.30
2023-03-11T10:21:01.617Z,99.70
2023-03-11T10:23:37.691Z,99.90
2023-03-11T10:26:15.354Z,99.90
2023-03-11T10:28:49.014Z,99.90
2023-03-11T10:31:20.775Z,99.90
2023-03-11T10:33:53.396Z,99.00
2023-03-11T10:36:26.550Z,98.70
2023-03-11T10:38:56.777Z,98.60
2023-03-11T10:41:31.339Z,99.90
2023-03-11T10:44:07.100Z,99.90
2023-03-11T10:46:35.309Z,99.90
2023-03-11T10:49:03.519Z,99.60
2023-03-11T10:51:36.537Z,99.90
2023-03-11T10:54:06.123Z,99.90
2023-03-11T10:56:36.994Z,99.90
2023-03-11T10:59:20.451Z,99.90
2023-03-11T11:01:56.327Z,99.90
2023-03-11T11:04:29.609Z,99.90
2023-03-11T11:06:59.426Z,99.90
2023-03-11T11:09:31.124Z,99.20
2023-03-11T11:12:05.476Z,99.90
2023-03-11T11:14:46.184Z,99.90
2023-03-11T11:17:20.337Z,99.90
2023-03-11T11:19:51.810Z,99.90
2023-03-11T11:22:23.197Z,99.00
2023-03-11T11:24:54.486Z,99.90
2023-03-11T11:27:24.532Z,99.90
2023-03-11T11:30:16.701Z,97.80
2023-03-11T11:32:45.136Z,96.50
2023-03-11T11:35:15.080Z,97.90
2023-03-11T11:37:47.031Z,97.60
2023-03-11T11:40:28.425Z,97.30
2023-03-11T11:43:00.361Z,99.90
2023-03-11T11:45:35.787Z,99.90
2023-03-11T11:48:09.128Z,99.40
2023-03-11T11:50:42.088Z,96.80
2023-03-11T11:53:22.815Z,95.30
2023-03-11T11:55:54.014Z,99.90
2023-03-11T11:58:22.637Z,98.60
2023-03-11T12:01:11.235Z,95.60
2023-03-11T12:04:27.045Z,99.20
2023-03-11T12:07:12.165Z,99.90
2023-03-11T12:09:49.878Z,99.90
2023-03-11T12:12:25.728Z,96.50
2023-03-11T12:15:00.136Z,95.50
2023-03-11T12:17:32.520Z,97.40
2023-03-11T12:20:04.683Z,97.40
2023-03-11T12:23:02.175Z,99.90
2023-03-11T12:25:36.543Z,99.70
2023-03-11T12:28:15.627Z,97.70
2023-03-11T12:30:46.815Z,99.70
2023-03-11T12:33:20.899Z,99.90
2023-03-11T12:35:53.435Z,99.90
2023-03-11T12:38:31.290Z,98.20
2023-03-11T12:41:02.308Z,95.80
2023-03-11T12:44:10.084Z,98.30
2023-03-11T12:47:11.885Z,95.90
2023-03-11T12:49:44.144Z,92.30
2023-03-11T12:52:26.709Z,95.30
2023-03-11T12:55:37.627Z,96.30
2023-03-11T12:58:48.289Z,98.00
2023-03-11T13:01:33.132Z,96.00
2023-03-11T13:04:15.770Z,99.40
2023-03-11T13:07:08.982Z,99.20
2023-03-11T13:09:37.203Z,97.50
2023-03-11T13:12:26.737Z,95.60
2023-03-11T13:15:36.462Z,98.30
2023-03-11T13:18:16.451Z,96.10
2023-03-11T13:20:49.327Z,99.90
2023-03-11T13:23:27.240Z,99.90
2023-03-11T13:26:24.295Z,99.90
2023-03-11T13:29:03.794Z,99.90
2023-03-11T13:31:50.642Z,99.90
2023-03-11T13:34:24.263Z,99.90
2023-03-11T13:37:07.020Z,99.90
2023-03-11T13:39:55.004Z,99.90
2023-03-11T13:42:30.487Z,96.30
2023-03-11T13:44:59.976Z,97.90
2023-03-11T13:47:30.027Z,96.00
2023-03-11T13:50:04.567Z,96.10
2023-03-11T13:52:36.734Z,95.60
2023-03-11T13:55:10.290Z,97.80
2023-03-11T13:57:39.305Z,96.10
2023-03-11T14:00:16.891Z,97.90
2023-03-11T14:02:50.985Z,97.90
2023-03-11T14:05:22.752Z,98.00
2023-03-11T14:07:50.925Z,96.90
2023-03-11T14:10:29.356Z,96.20
2023-03-11T14:13:18.243Z,98.10
2023-03-11T14:15:53.664Z,99.00
2023-03-11T14:18:43.374Z,99.20
2023-03-11T14:21:16.328Z,96.70
2023-03-11T14:23:46.191Z,97.10
2023-03-11T14:26:19.165Z,94.60
2023-03-11T14:28:50.753Z,93.30
2023-03-11T14:31:30.646Z,94.20
2023-03-11T14:34:04.404Z,92.80
2023-03-11T14:36:41.706Z,93.70
2023-03-11T14:39:28.100Z,97.30
2023-03-11T14:42:02.932Z,94.80
2023-03-11T14:44:34.041Z,93.30
2023-03-11T14:47:09.354Z,93.60
2023-03-11T14:49:38.605Z,92.50
2023-03-11T14:52:12.499Z,91.80
2023-03-11T14:54:42.161Z,94.20
2023-03-11T14:57:19.700Z,94.10
2023-03-11T14:59:52.337Z,95.00
2023-03-11T15:02:38.389Z,95.30
2023-03-11T15:05:12.563Z,94.70
2023-03-11T15:07:41.197Z,94.00
2023-03-11T15:10:14.278Z,93.30
2023-03-11T15:12:46.001Z,96.40
2023-03-11T15:15:35.157Z,96.20
2023-03-11T15:18:04.657Z,93.60
2023-03-11T15:20:34.821Z,94.90
2023-03-11T15:23:06.062Z,96.20
2023-03-11T15:25:36.217Z,96.20
2023-03-11T15:28:25.353Z,95.40
2023-03-11T15:31:17.151Z,94.50
2023-03-11T15:33:46.327Z,94.20
2023-03-11T15:36:35.206Z,94.00
2023-03-11T15:39:15.322Z,93.80
2023-03-11T15:41:44.866Z,94.40
2023-03-11T15:44:29.234Z,94.40
2023-03-11T15:46:59.677Z,93.90
2023-03-11T15:49:28.156Z,93.40
2023-03-11T15:51:59.837Z,95.00
2023-03-11T15:54:28.646Z,94.10
2023-03-11T15:56:58.331Z,95.50
2023-03-11T15:59:29.093Z,95.80
2023-03-11T16:01:59.653Z,95.70
2023-03-11T16:04:28.030Z,95.60
2023-03-11T16:07:07.374Z,97.40
2023-03-11T16:09:36.575Z,99.60
2023-03-11T16:12:15.231Z,96.80
2023-03-11T16:14:45.262Z,97.90
2023-03-11T16:17:14.684Z,99.00
2023-03-11T16:19:43.569Z,98.60
2023-03-11T16:22:17.751Z,98.90
2023-03-11T16:24:47.006Z,98.50
2023-03-11T16:27:17.954Z,99.90
2023-03-11T16:29:48.303Z,99.90
2023-03-11T16:32:16.581Z,99.90
2023-03-11T16:34:44.864Z,99.90
2023-03-11T16:37:16.639Z,99.90
2023-03-11T16:39:45.004Z,99.90
2023-03-11T16:42:13.261Z,99.90
2023-03-11T16:44:41.678Z,99.90
2023-03-11T16:47:11.532Z,99.90
2023-03-11T16:49:39.707Z,99.90
2023-03-11T16:52:08.444Z,99.90
2023-03-11T16:54:36.843Z,99.90
2023-03-11T16:57:05.256Z,99.90
2023-03-11T16:59:33.850Z,99.90
2023-03-11T17:02:02.694Z,99.90
2023-03-11T17:04:33.730Z,99.90
2023-03-11T17:07:02.261Z,99.90
2023-03-11T17:09:31.842Z,99.90
2023-03-11T17:12:00.386Z,99.90
2023-03-11T17:14:28.754Z,99.90
2023-03-11T17:16:56.921Z,99.90
2023-03-11T17:19:25.225Z,99.90
2023-03-11T17:21:55.247Z,99.90
2023-03-11T17:24:23.402Z,99.90
2023-03-11T17:26:51.525Z,99.90
2023-03-11T17:29:20.545Z,99.90
2023-03-11T17:31:49.091Z,99.90
2023-03-11T17:34:17.626Z,99.90
2023-03-11T17:36:46.055Z,99.90
2023-03-11T17:39:15.787Z,99.90
2023-03-11T17:41:44.123Z,99.90
2023-03-11T17:44:13.009Z,99.90
2023-03-11T17:46:41.893Z,99.90
2023-03-11T17:49:15.705Z,99.90
2023-03-11T17:51:44.082Z,99.90
2023-03-11T17:54:12.238Z,99.90
2023-03-11T17:56:42.325Z,99.90
2023-03-11T17:59:10.763Z,99.90
2023-03-11T18:01:39.220Z,99.90
2023-03-11T18:04:08.250Z,99.90
2023-03-11T18:06:36.724Z,99.90
2023-03-11T18:09:05.121Z,99.90
2023-03-11T18:11:33.771Z,99.90
2023-03-11T18:14:03.592Z,99.90
2023-03-11T18:16:33.777Z,99.90
2023-03-11T18:19:02.148Z,99.90
2023-03-11T18:21:31.763Z,99.90
2023-03-11T18:24:01.830Z,99.90
2023-03-11T18:26:32.287Z,99.90
2023-03-11T18:29:02.617Z,99.90
2023-03-11T18:31:31.910Z,99.90
2023-03-11T18:34:02.493Z,99.90
2023-03-11T18:36:32.932Z,99.90
2023-03-11T18:39:02.567Z,99.90
2023-03-11T18:41:33.494Z,99.90
2023-03-11T18:44:04.214Z,99.90
2023-03-11T18:46:33.971Z,99.90
2023-03-11T18:49:03.868Z,99.90
2023-03-11T18:51:33.233Z,99.90
2023-03-11T18:54:02.040Z,99.90
2023-03-11T18:56:32.377Z,99.90
2023-03-11T18:59:02.509Z,99.90
2023-03-11T19:01:30.934Z,99.90
2023-03-11T19:04:01.300Z,99.90
2023-03-11T19:06:30.090Z,99.90
2023-03-11T19:08:58.792Z,99.90
2023-03-11T19:11:27.420Z,99.90
2023-03-11T19:13:55.927Z,99.90
2023-03-11T19:16:26.811Z,99.90
2023-03-11T19:18:56.311Z,99.90
2023-03-11T19:21:25.885Z,99.90
2023-03-11T19:23:55.363Z,99.90
2023-03-11T19:26:37.720Z,99.90
2023-03-11T19:29:11.711Z,99.90
2023-03-11T19:31:41.616Z,99.90
2023-03-11T19:34:09.848Z,99.90
2023-03-11T19:36:39.043Z,99.90
2023-03-11T19:39:08.115Z,99.90
2023-03-11T19:41:36.321Z,99.90
2023-03-11T19:44:04.753Z,99.90
2023-03-11T19:46:34.889Z,99.90
2023-03-11T19:49:04.806Z,99.90
2023-03-11T19:51:48.135Z,99.90
2023-03-11T19:54:17.689Z,99.90
2023-03-11T19:56:45.987Z,99.90
2023-03-11T19:59:14.273Z,99.90
2023-03-11T20:01:43.483Z,99.90
2023-03-11T20:04:15.265Z,99.90
2023-03-11T20:06:44.634Z,99.90
2023-03-11T20:09:15.712Z,99.90
2023-03-11T20:11:45.883Z,99.90
2023-03-11T20:14:14.442Z,99.90
2023-03-11T20:16:43.420Z,99.90
2023-03-11T20:19:13.857Z,99.90
2023-03-11T20:21:44.560Z,99.90
2023-03-11T20:24:13.856Z,99.90
2023-03-11T20:26:42.347Z,99.90
2023-03-11T20:29:11.126Z,99.90
2023-03-11T20:31:39.479Z,99.90
2023-03-11T20:34:08.035Z,99.90
2023-03-11T20:36:37.702Z,99.90
2023-03-11T20:39:10.172Z,99.90
2023-03-11T20:41:41.038Z,99.90
2023-03-11T20:44:13.456Z,99.90
2023-03-11T20:46:42.252Z,99.90
2023-03-11T20:49:10.635Z,99.90
2023-03-11T20:51:41.818Z,99.90
2023-03-11T20:54:12.340Z,99.90
2023-03-11T20:56:40.586Z,99.90
2023-03-11T20:59:08.882Z,99.90
2023-03-11T21:01:37.479Z,99.90
2023-03-11T21:04:06.437Z,99.90
2023-03-11T21:06:36.821Z,99.90
2023-03-11T21:09:08.870Z,99.90
2023-03-11T21:11:37.223Z,99.90
2023-03-11T21:14:06.088Z,99.90
2023-03-11T21:16:35.264Z,99.90
2023-03-11T21:19:05.628Z,99.90
2023-03-11T21:21:34.000Z,99.90
2023-03-11T21:24:02.426Z,99.90
2023-03-11T21:26:32.097Z,99.90
2023-03-11T21:29:00.764Z,99.90
2023-03-11T21:31:30.034Z,99.90
2023-03-11T21:34:01.198Z,99.90
2023-03-11T21:36:31.121Z,99.90
2023-03-11T21:39:01.514Z,99.90
2023-03-11T21:41:32.900Z,99.90
2023-03-11T21:44:01.123Z,99.90
2023-03-11T21:46:31.421Z,99.90
2023-03-11T21:49:01.348Z,99.90
2023-03-11T21:51:31.283Z,99.90
2023-03-11T21:54:00.057Z,99.90
2023-03-11T21:56:28.811Z,99.90
2023-03-11T21:58:58.610Z,99.90
2023-03-11T22:01:27.453Z,99.90
2023-03-11T22:03:56.720Z,99.90
2023-03-11T22:06:25.800Z,99.90
2023-03-11T22:08:54.209Z,99.90
2023-03-11T22:11:22.760Z,99.90
2023-03-11T22:13:54.068Z,99.90
2023-03-11T22:16:25.472Z,99.90
2023-03-11T22:18:54.683Z,99.90
2023-03-11T22:21:23.167Z,99.90
2023-03-11T22:23:51.635Z,99.90
2023-03-11T22:26:20.096Z,99.90
2023-03-11T22:28:48.326Z,99.90
2023-03-11T22:31:18.730Z,99.90
2023-03-11T22:33:48.834Z,99.90
2023-03-11T22:36:16.998Z,99.90
2023-03-11T22:38:45.477Z,99.90
2023-03-11T22:41:16.833Z,99.90
2023-03-11T22:43:45.037Z,99.90
2023-03-11T22:46:13.569Z,99.90
2023-03-11T22:48:41.988Z,99.90
2023-03-11T22:51:11.562Z,99.90
2023-03-11T22:53:39.955Z,99.90
2023-03-11T22:56:10.121Z,99.90
2023-03-11T22:58:38.352Z,99.90
2023-03-11T23:01:07.129Z,99.90
2023-03-11T23:03:36.651Z,99.90
2023-03-11T23:06:08.097Z,99.90
2023-03-11T23:08:38.301Z,99.90
2023-03-11T23:11:08.119Z,99.90
2023-03-11T23:13:37.314Z,99.90
2023-03-11T23:16:07.466Z,99.90
2023-03-11T23:18:36.224Z,99.90
2023-03-11T23:21:04.783Z,99.90
2023-03-11T23:23:33.105Z,99.90
2023-03-11T23:26:07.872Z,99.90
2023-03-11T23:28:36.522Z,99.90
2023-03-11T23:31:05.364Z,99.90
2023-03-11T23:33:33.546Z,99.90
2023-03-11T23:36:02.805Z,99.90
2023-03-11T23:38:31.763Z,99.90
2023-03-11T23:41:00.061Z,99.90
2023-03-11T23:43:30.041Z,99.90
2023-03-11T23:45:58.433Z,99.90
2023-03-11T23:48:26.670Z,99.90
2023-03-11T23:50:55.465Z,99.90
2023-03-11T23:53:23.692Z,99.90
2023-03-11T23:55:51.930Z,99.90
2023-03-11T23:58:20.453Z,99.90
